Flight Track Log - Related Links

Times and Time Zones

All times are in EDT time to prevent confusion due to time zone crossing. See the ASH2834 flight status page for this flight to view local times or setup timezone preferences in your user account.

Time Position Orientation Groundspeed Altitude Reporting Facility
EDT Latitude Longitude Course Direction KTS MPH feet Rate Location/Type
Tue 10:33:45 PM 33.8333 -118.2167 90° East 213 245 3,300  Level Southern California TRACON
Tue 10:34:59 PM 33.7664 -118.2339 192° South 219 252 6,100 2,426 Climbing Los Angeles Center
Tue 10:36:00 PM 33.5833 -118.0245 90° East  Level FlightAware Approximate
Tue 10:36:01 PM 33.7014 -118.2533 194° South 242 278 8,800  Level Los Angeles Center
Tue 10:37:00 PM 33.5834 -117.8986 90° East  Level FlightAware Approximate
Tue 10:37:03 PM 33.6592 -118.1869 127° Southeast 291 335 11,200  Level Los Angeles Center
Tue 10:38:00 PM 33.5833 -117.7727 90° East  Level FlightAware Approximate
Tue 10:38:04 PM 33.6650 -118.0781 86° East 328 377 14,700  Level Los Angeles Center
Tue 10:39:06 PM 33.6639 -117.9642 91° East 339 390 17,200 2,419 Climbing Los Angeles Center
Tue 10:40:08 PM 33.6625 -117.8392 91° East 370 426 19,700 2,732 Climbing Los Angeles Center
Tue 10:41:09 PM 33.6608 -117.6828 91° East 391 450 22,800 1,610 Climbing Los Angeles Center
Tue 10:42:11 PM 33.6581 -117.5411 91° East 427 491 23,000 1,366 Climbing Los Angeles Center
Tue 10:43:12 PM 33.6561 -117.3972 91° East 436 502 25,600 2,195 Climbing Los Angeles Center
Tue 10:44:14 PM 33.6533 -117.2558 91° East 427 491 27,500 1,742 Climbing Los Angeles Center
Tue 10:45:16 PM 33.6519 -117.1050 91° East 448 516 29,200 1,500 Climbing Los Angeles Center
Tue 10:46:18 PM 33.6467 -116.9533 92° East 456 525 30,600 878 Climbing Los Angeles Center
Tue 10:47:19 PM 33.6431 -116.7747 91° East 482 555 31,000 195 Climbing Los Angeles Center
Tue 10:48:21 PM 33.6397 -116.6156 91° East 477 549 31,000  Level Los Angeles Center
Tue 10:49:23 PM 33.6364 -116.4650 91° East 457 526 31,000  Level Los Angeles Center
Tue 10:50:24 PM 33.6314 -116.3150 92° East 450 518 31,000  Level Los Angeles Center
Tue 10:51:26 PM 33.6272 -116.1633 92° East 453 521 31,000  Level Los Angeles Center
Tue 10:52:28 PM 33.6253 -116.0103 91° East 456 525 31,000  Level Los Angeles Center
Tue 10:53:29 PM 33.6217 -115.8272 91° East 456 525 31,000  Level Los Angeles Center
Tue 10:54:31 PM 33.6181 -115.6731 92° East 460 529 31,000  Level Los Angeles Center
Tue 10:55:33 PM 33.6142 -115.5181 92° East 463 533 31,000  Level Los Angeles Center
Tue 10:56:34 PM 33.6103 -115.3625 92° East 466 536 31,000  Level Los Angeles Center
Tue 10:57:36 PM 33.6061 -115.2081 92° East 464 534 31,000  Level Los Angeles Center
Tue 10:58:38 PM 33.6008 -115.0556 92° East 460 529 31,000  Level Los Angeles Center
Tue 10:59:39 PM 33.5992 -114.9047 91° East 453 521 31,000  Level Los Angeles Center
Tue 11:00:41 PM 33.5936 -114.7528 92° East 456 525 31,000 -871 Level Los Angeles Center
Tue 11:01:43 PM 33.5564 -114.5700 104° East 472 543 29,200 -1,576 Descending Los Angeles Center
Tue 11:02:20 PM 33.5453 -114.4919 100° East 472 543 28,400 -1,347 Descending Albuquerque Center
Tue 11:03:21 PM 33.5164 -114.3406 103° East 468 539 27,000 -1,328 Descending Albuquerque Center
Tue 11:04:22 PM 33.4850 -114.1897 104° East 468 539 25,700 -976 Descending Albuquerque Center
Tue 11:05:24 PM 33.4544 -114.0414 104° East 464 534 25,000 -341 Descending Albuquerque Center
Tue 11:06:25 PM 33.4236 -113.8933 104° East 460 529 25,000 -246 Level Albuquerque Center
Tue 11:07:26 PM 33.3864 -113.7092 104° East 466 536 24,500 -984 Descending Albuquerque Center
Tue 11:08:27 PM 33.3561 -113.5572 103° East 470 541 23,000 -1,623 Descending Albuquerque Center
Tue 11:09:28 PM 33.3281 -113.4128 103° East 460 529 21,200 -1,756 Descending Albuquerque Center
Tue 11:10:30 PM 33.2989 -113.2733 104° East 440 506 19,400 -1,805 Descending Albuquerque Center
Tue 11:11:31 PM 33.2758 -113.1356 101° East 427 491 17,500 -1,574 Descending Albuquerque Center
Tue 11:12:32 PM 33.2758 -113.0086 90° East 391 450 16,200 -1,180 Descending Albuquerque Center
Tue 11:13:33 PM 33.2789 -112.8964 88° East 355 409 15,100 -585 Descending Albuquerque Center
Tue 11:14:35 PM 33.2817 -112.7889 88° East 333 383 15,000 -49 Descending Albuquerque Center
Tue 11:15:36 PM 33.2833 -112.6828 89° East 323 372 15,000 -738 Level Albuquerque Center
Tue 11:16:37 PM 33.2875 -112.5631 88° East 315 362 13,500 -1,426 Descending Albuquerque Center
Tue 11:17:38 PM 33.2894 -112.4597 89° East 311 358 12,100 -1,180 Descending Albuquerque Center
Tue 11:18:39 PM 33.2922 -112.3592 88° East 306 352 11,100 -927 Descending Albuquerque Center
Tue 11:19:41 PM 33.2989 -112.2608 85° East 301 346 10,200 -927 Descending Albuquerque Center
Tue 11:20:42 PM 33.3056 -112.1664 85° East 289 333 9,200 -590 Descending Albuquerque Center
Tue 11:21:43 PM 33.3150 -112.0825 82° East 259 298 9,000 -683 Descending Albuquerque Center
Tue 11:22:45 PM 33.3339 -112.0042 74° East 248 285 7,800 -1,024 Descending Albuquerque Center
Tue 11:23:46 PM 33.3467 -111.9247 79° East 247 284 6,900 -1,180 Descending Albuquerque Center
Tue 11:24:47 PM 33.3717 -111.8433 70° East 242 278 5,400 -1,426 Descending Albuquerque Center
Tue 11:25:48 PM 33.4311 -111.8392 North 221 254 4,000 -1,377 Descending Albuquerque Center

Login

Don't have an account? Register now (free) for customized features, flight alerts, and more!